createdAt,value
2023-03-26T00:00:48.418Z,3.00
2023-03-26T00:03:17.024Z,2.88
2023-03-26T00:05:46.533Z,2.92
2023-03-26T00:08:12.968Z,2.53
2023-03-26T00:10:41.421Z,2.72
2023-03-26T00:13:08.814Z,2.50
2023-03-26T00:15:36.565Z,3.08
2023-03-26T00:18:03.493Z,3.13
2023-03-26T00:20:32.739Z,3.50
2023-03-26T00:23:01.797Z,2.83
2023-03-26T00:25:28.428Z,2.70
2023-03-26T00:27:54.822Z,3.17
2023-03-26T00:30:21.260Z,3.15
2023-03-26T00:32:53.681Z,3.75
2023-03-26T00:35:20.890Z,3.70
2023-03-26T00:37:47.770Z,2.70
2023-03-26T00:40:16.927Z,2.35
2023-03-26T00:42:43.345Z,3.63
2023-03-26T00:45:10.216Z,2.50
2023-03-26T00:47:37.157Z,2.55
2023-03-26T00:50:04.289Z,2.40
2023-03-26T00:52:31.648Z,2.35
2023-03-26T00:54:58.103Z,2.78
2023-03-26T00:57:35.743Z,2.40
2023-03-26T01:00:16.487Z,2.78
2023-03-26T01:02:45.156Z,1.97
2023-03-26T01:05:36.343Z,2.40
2023-03-26T01:08:22.640Z,2.60
2023-03-26T01:10:53.274Z,2.22
2023-03-26T01:13:23.048Z,2.30
2023-03-26T01:15:51.047Z,1.80
2023-03-26T01:18:20.752Z,2.20
2023-03-26T01:20:50.813Z,2.28
2023-03-26T01:23:26.434Z,2.30
2023-03-26T01:26:04.285Z,2.08
2023-03-26T01:28:34.994Z,1.53
2023-03-26T01:31:17.287Z,2.15
2023-03-26T01:33:54.566Z,1.60
2023-03-26T01:36:37.621Z,3.05
2023-03-26T01:39:25.238Z,1.67
2023-03-26T01:41:57.149Z,1.87
2023-03-26T01:44:32.077Z,1.90
2023-03-26T01:47:00.645Z,2.10
2023-03-26T01:49:29.005Z,1.48
2023-03-26T01:51:56.670Z,1.85
2023-03-26T01:54:26.746Z,2.23
2023-03-26T01:57:05.548Z,1.90
2023-03-26T01:59:56.886Z,2.05
2023-03-26T02:02:44.911Z,2.13
2023-03-26T02:05:29.290Z,1.55
2023-03-26T02:08:22.662Z,1.80
2023-03-26T02:10:54.766Z,1.65
2023-03-26T02:13:21.928Z,1.60
2023-03-26T02:16:02.854Z,2.35
2023-03-26T02:18:41.673Z,1.98
2023-03-26T02:21:20.461Z,1.90
2023-03-26T02:23:57.788Z,2.17
2023-03-26T02:26:24.613Z,2.08
2023-03-26T02:28:51.044Z,1.83
2023-03-26T02:31:19.232Z,2.92
2023-03-26T02:33:47.595Z,2.10
2023-03-26T02:36:14.255Z,2.17
2023-03-26T02:38:41.594Z,2.03
2023-03-26T02:41:08.006Z,2.17
2023-03-26T02:43:34.357Z,2.33
2023-03-26T02:46:00.898Z,2.20
2023-03-26T02:48:27.359Z,2.13
2023-03-26T02:50:56.708Z,2.17
2023-03-26T02:53:23.743Z,2.22
2023-03-26T02:55:50.248Z,2.33
2023-03-26T02:58:17.420Z,2.90
2023-03-26T03:00:44.923Z,2.17
2023-03-26T03:03:11.323Z,2.55
2023-03-26T03:05:38.080Z,2.67
2023-03-26T03:08:05.899Z,2.50
2023-03-26T03:10:35.146Z,2.20
2023-03-26T03:13:01.567Z,2.20
2023-03-26T03:15:31.072Z,2.40
2023-03-26T03:17:57.481Z,2.08
2023-03-26T03:20:23.949Z,2.67
2023-03-26T03:22:50.363Z,3.07
2023-03-26T03:25:17.457Z,2.28
2023-03-26T03:27:44.555Z,2.83
2023-03-26T03:30:13.057Z,2.72
2023-03-26T03:32:39.588Z,3.03
2023-03-26T03:35:07.316Z,3.43
2023-03-26T03:37:33.929Z,3.75
2023-03-26T03:40:00.312Z,3.72
2023-03-26T03:42:27.512Z,5.28
2023-03-26T03:44:53.941Z,4.88
2023-03-26T03:47:21.029Z,5.17
2023-03-26T03:49:47.356Z,5.22
2023-03-26T03:52:13.728Z,5.00
2023-03-26T03:54:40.269Z,4.78
2023-03-26T03:57:06.582Z,5.05
2023-03-26T03:59:33.026Z,5.43
2023-03-26T04:01:59.391Z,5.45
2023-03-26T04:04:25.903Z,5.40
2023-03-26T04:06:52.604Z,5.30
2023-03-26T04:09:19.096Z,5.25
2023-03-26T04:11:45.584Z,5.00
2023-03-26T04:14:11.929Z,5.63
2023-03-26T04:16:38.330Z,6.80
2023-03-26T04:19:04.838Z,5.63
2023-03-26T04:21:31.308Z,6.18
2023-03-26T04:23:57.730Z,5.23
2023-03-26T04:26:24.307Z,5.35
2023-03-26T04:28:56.368Z,5.55
2023-03-26T04:31:28.911Z,6.82
2023-03-26T04:34:01.414Z,5.13
2023-03-26T04:36:30.106Z,5.90
2023-03-26T04:38:58.425Z,6.85
2023-03-26T04:41:27.799Z,6.25
2023-03-26T04:43:54.514Z,6.40
2023-03-26T04:46:21.842Z,6.75
2023-03-26T04:48:52.517Z,5.83
2023-03-26T04:51:23.746Z,6.53
2023-03-26T04:53:57.748Z,6.63
2023-03-26T04:56:38.094Z,6.40
2023-03-26T04:59:04.584Z,6.82
2023-03-26T05:01:31.011Z,7.90
2023-03-26T05:03:58.552Z,6.65
2023-03-26T05:06:28.821Z,7.00
2023-03-26T05:08:55.432Z,6.55
2023-03-26T05:11:21.803Z,6.45
2023-03-26T05:13:48.202Z,6.43
2023-03-26T05:16:14.730Z,6.80
2023-03-26T05:18:41.229Z,6.68
2023-03-26T05:21:07.838Z,6.88
2023-03-26T05:23:34.310Z,6.35
2023-03-26T05:26:00.751Z,7.33
2023-03-26T05:28:28.138Z,7.20
2023-03-26T05:30:54.868Z,7.00
2023-03-26T05:33:21.993Z,7.03
2023-03-26T05:35:59.841Z,7.53
2023-03-26T05:38:28.839Z,6.47
2023-03-26T05:41:01.950Z,6.38
2023-03-26T05:43:29.168Z,8.27
2023-03-26T05:45:55.610Z,6.85
2023-03-26T05:48:22.334Z,7.22
2023-03-26T05:50:54.146Z,7.30
2023-03-26T05:53:21.803Z,6.57
2023-03-26T05:55:58.448Z,7.10
2023-03-26T05:58:26.072Z,5.97
2023-03-26T06:01:16.505Z,6.43
2023-03-26T06:03:44.796Z,6.37
2023-03-26T06:06:20.451Z,6.57
2023-03-26T06:09:01.766Z,6.13
2023-03-26T06:11:32.861Z,6.43
2023-03-26T06:14:00.347Z,7.28
2023-03-26T06:16:28.076Z,8.60
2023-03-26T06:18:56.326Z,8.50
2023-03-26T06:21:24.437Z,8.10
2023-03-26T06:23:51.810Z,6.65
2023-03-26T06:26:18.476Z,6.60
2023-03-26T06:28:44.955Z,8.97
2023-03-26T06:31:11.960Z,10.07
2023-03-26T06:33:38.526Z,9.45
2023-03-26T06:36:05.524Z,10.10
2023-03-26T06:38:32.016Z,9.88
2023-03-26T06:41:03.284Z,8.77
2023-03-26T06:43:33.468Z,7.28
2023-03-26T06:46:01.242Z,6.88
2023-03-26T06:48:27.808Z,6.50
2023-03-26T06:50:54.671Z,7.97
2023-03-26T06:53:21.285Z,7.10
2023-03-26T06:55:47.672Z,6.60
2023-03-26T06:58:14.380Z,7.43
2023-03-26T07:00:42.213Z,6.32
2023-03-26T07:03:08.762Z,7.10
2023-03-26T07:05:35.288Z,6.77
2023-03-26T07:08:02.872Z,6.65
2023-03-26T07:10:29.387Z,6.82
2023-03-26T07:12:56.069Z,7.13
2023-03-26T07:15:22.567Z,7.60
2023-03-26T07:17:49.093Z,6.63
2023-03-26T07:20:15.824Z,7.57
2023-03-26T07:22:42.675Z,7.97
2023-03-26T07:25:09.997Z,7.45
2023-03-26T07:28:02.244Z,7.97
2023-03-26T07:30:31.668Z,8.13
2023-03-26T07:33:07.310Z,7.15
2023-03-26T07:35:46.249Z,7.65
2023-03-26T07:38:47.041Z,6.75
2023-03-26T07:41:42.716Z,7.00
2023-03-26T07:44:19.347Z,14.20
2023-03-26T07:46:47.791Z,13.63
2023-03-26T07:49:14.887Z,12.88
2023-03-26T07:51:41.544Z,9.65
2023-03-26T07:54:10.645Z,10.82
2023-03-26T07:56:42.007Z,9.90
2023-03-26T07:59:36.362Z,11.35
2023-03-26T08:02:02.649Z,12.00
2023-03-26T08:05:02.836Z,9.63
2023-03-26T08:08:02.755Z,12.38
2023-03-26T08:10:39.051Z,10.10
2023-03-26T08:13:34.310Z,8.30
2023-03-26T08:16:26.307Z,8.55
2023-03-26T08:19:30.741Z,8.02
2023-03-26T08:22:40.922Z,7.40
2023-03-26T08:25:33.331Z,8.27
2023-03-26T08:28:26.356Z,9.10
2023-03-26T08:30:55.114Z,7.75
2023-03-26T08:33:25.830Z,7.57
2023-03-26T08:35:52.257Z,8.20
2023-03-26T08:38:20.806Z,7.30
2023-03-26T08:41:08.640Z,7.20
2023-03-26T08:43:57.263Z,6.82
2023-03-26T08:46:51.756Z,8.77
2023-03-26T08:49:33.279Z,8.85
2023-03-26T08:52:35.396Z,8.97
2023-03-26T08:55:30.194Z,9.73
2023-03-26T08:58:27.821Z,10.75
2023-03-26T09:01:06.418Z,10.45
2023-03-26T09:03:54.001Z,9.40
2023-03-26T09:07:06.923Z,10.43
2023-03-26T09:10:03.149Z,10.77
2023-03-26T09:13:07.361Z,10.32
2023-03-26T09:15:55.793Z,8.48
2023-03-26T09:18:44.077Z,10.32
2023-03-26T09:21:32.032Z,10.37
2023-03-26T09:24:22.604Z,8.27
2023-03-26T09:27:19.724Z,9.57
2023-03-26T09:30:12.406Z,9.10
2023-03-26T09:33:05.234Z,8.70
2023-03-26T09:35:52.854Z,8.57
2023-03-26T09:38:25.402Z,8.55
2023-03-26T09:40:54.690Z,8.73
2023-03-26T09:43:40.921Z,9.38
2023-03-26T09:46:37.148Z,8.23
2023-03-26T09:49:28.145Z,8.30
2023-03-26T09:52:07.087Z,7.80
2023-03-26T09:55:11.305Z,8.02
2023-03-26T09:58:01.100Z,7.55
2023-03-26T10:00:33.169Z,7.63
2023-03-26T10:03:18.165Z,7.03
2023-03-26T10:05:59.666Z,7.22
2023-03-26T10:08:39.685Z,6.93
2023-03-26T10:11:21.341Z,6.20
2023-03-26T10:14:12.623Z,5.97
2023-03-26T10:16:46.414Z,6.03
2023-03-26T10:19:28.701Z,5.85
2023-03-26T10:22:13.542Z,6.05
2023-03-26T10:25:10.879Z,5.72
2023-03-26T10:27:49.349Z,5.88
2023-03-26T10:30:38.453Z,5.40
2023-03-26T10:33:32.309Z,5.78
2023-03-26T10:36:27.562Z,6.05
2023-03-26T10:39:36.420Z,5.20
2023-03-26T10:42:21.070Z,4.68
2023-03-26T10:45:18.878Z,4.23
2023-03-26T10:48:13.436Z,4.22
2023-03-26T10:51:02.469Z,4.18
2023-03-26T10:53:54.673Z,4.75
2023-03-26T10:56:44.131Z,3.72
2023-03-26T10:59:15.699Z,3.43
2023-03-26T11:02:00.853Z,3.10
2023-03-26T11:04:55.633Z,3.85
2023-03-26T11:07:44.108Z,3.90
2023-03-26T11:10:10.411Z,3.53
2023-03-26T11:13:06.832Z,3.33
2023-03-26T11:15:46.014Z,2.83
2023-03-26T11:18:39.354Z,2.45
2023-03-26T11:21:19.125Z,2.85
2023-03-26T11:23:49.702Z,3.30
2023-03-26T11:27:15.285Z,3.20
2023-03-26T11:30:03.101Z,2.70
2023-03-26T11:33:00.109Z,2.08
2023-03-26T11:35:43.893Z,2.75
2023-03-26T11:38:21.630Z,3.15
2023-03-26T11:40:53.082Z,2.77
2023-03-26T11:43:26.514Z,2.70
2023-03-26T11:45:53.742Z,3.60
2023-03-26T11:48:46.552Z,3.08
2023-03-26T11:51:20.226Z,3.08
2023-03-26T11:53:47.711Z,3.57
2023-03-26T11:56:25.909Z,10.43
2023-03-26T11:59:08.551Z,3.53
2023-03-26T12:01:50.457Z,3.92
2023-03-26T12:04:37.801Z,2.72
2023-03-26T12:07:21.042Z,4.73
2023-03-26T12:09:56.489Z,3.05
2023-03-26T12:12:42.180Z,3.28
2023-03-26T12:15:21.257Z,3.00
2023-03-26T12:17:53.312Z,2.80
2023-03-26T12:20:25.584Z,3.07
2023-03-26T12:22:59.256Z,2.40
2023-03-26T12:25:27.957Z,2.70
2023-03-26T12:28:15.557Z,2.92
2023-03-26T12:30:54.199Z,2.67
2023-03-26T12:33:29.589Z,2.67
2023-03-26T12:36:00.551Z,2.80
2023-03-26T12:38:33.566Z,2.08
2023-03-26T12:43:51.460Z,2.17
2023-03-26T12:44:55.919Z,2.65
2023-03-26T12:47:57.213Z,1.80
2023-03-26T12:50:05.321Z,2.20
2023-03-26T12:52:49.576Z,1.88
2023-03-26T12:55:40.451Z,1.95
2023-03-26T12:58:27.170Z,1.90
2023-03-26T13:00:56.421Z,2.40
2023-03-26T13:03:37.738Z,2.30
2023-03-26T13:06:20.304Z,2.80
2023-03-26T13:08:52.728Z,2.90
2023-03-26T13:11:43.446Z,2.85
2023-03-26T13:14:48.303Z,2.47
2023-03-26T13:17:34.909Z,2.92
2023-03-26T13:20:25.075Z,1.92
2023-03-26T13:23:19.450Z,1.70
2023-03-26T13:26:09.180Z,1.15
2023-03-26T13:29:09.384Z,2.20
2023-03-26T13:32:08.709Z,1.60
2023-03-26T13:35:10.272Z,1.52
2023-03-26T13:37:59.611Z,1.45
2023-03-26T13:40:41.691Z,1.77
2023-03-26T13:43:28.227Z,1.40
2023-03-26T13:46:07.158Z,1.50
2023-03-26T13:48:44.394Z,0.90
2023-03-26T13:51:21.884Z,1.08
2023-03-26T13:53:55.627Z,1.65
2023-03-26T13:56:30.765Z,1.37
2023-03-26T13:59:12.110Z,1.42
2023-03-26T14:01:51.337Z,1.50
2023-03-26T14:04:52.443Z,1.92
2023-03-26T14:07:26.122Z,2.05
2023-03-26T14:10:01.600Z,2.30
2023-03-26T14:12:49.459Z,0.93
2023-03-26T14:15:44.092Z,1.10
2023-03-26T14:18:24.575Z,1.60
2023-03-26T14:20:56.252Z,1.13
2023-03-26T14:24:04.462Z,1.10
2023-03-26T14:27:07.918Z,0.70
2023-03-26T14:29:56.914Z,1.63
2023-03-26T14:32:52.051Z,1.17
2023-03-26T14:35:31.511Z,1.30
2023-03-26T14:38:33.510Z,1.20
2023-03-26T14:41:24.640Z,1.00
2023-03-26T14:44:22.889Z,1.35
2023-03-26T14:47:15.851Z,1.27
2023-03-26T14:50:08.489Z,1.02
2023-03-26T14:52:51.554Z,0.87
2023-03-26T14:55:49.353Z,1.65
2023-03-26T14:58:24.871Z,1.27
2023-03-26T15:01:04.176Z,0.90
2023-03-26T15:03:49.034Z,1.58
2023-03-26T15:06:40.073Z,1.03
2023-03-26T15:09:27.839Z,1.05
2023-03-26T15:12:12.276Z,1.40
2023-03-26T15:15:04.222Z,2.78
2023-03-26T15:17:55.336Z,2.00
2023-03-26T15:20:56.934Z,1.40
2023-03-26T15:24:05.436Z,1.80
2023-03-26T15:27:01.578Z,1.27
2023-03-26T15:30:12.617Z,1.13
2023-03-26T15:33:11.916Z,1.10
2023-03-26T15:35:52.768Z,1.07
2023-03-26T15:38:50.204Z,1.63
2023-03-26T15:42:03.865Z,1.13
2023-03-26T15:44:53.026Z,0.82
2023-03-26T15:47:39.029Z,1.20
2023-03-26T15:50:20.648Z,1.40
2023-03-26T15:53:06.585Z,1.38
2023-03-26T15:56:13.925Z,1.30
2023-03-26T15:59:01.318Z,1.80
2023-03-26T16:01:49.440Z,2.85
2023-03-26T16:04:34.397Z,5.00
2023-03-26T16:07:11.530Z,1.70
2023-03-26T16:10:16.840Z,0.93
2023-03-26T16:13:14.588Z,2.58
2023-03-26T16:15:42.608Z,2.15
2023-03-26T16:18:15.301Z,1.40
2023-03-26T16:20:54.006Z,1.20
2023-03-26T16:23:55.342Z,1.17
2023-03-26T16:26:54.779Z,1.85
2023-03-26T16:29:23.861Z,1.25
2023-03-26T16:32:14.844Z,0.90
2023-03-26T16:34:47.543Z,1.48
2023-03-26T16:37:36.024Z,1.08
2023-03-26T16:40:20.902Z,0.80
2023-03-26T16:42:47.973Z,1.80
2023-03-26T16:45:27.622Z,1.23
2023-03-26T16:48:06.789Z,0.90
2023-03-26T16:50:52.695Z,1.40
2023-03-26T16:53:29.852Z,1.98
2023-03-26T16:56:16.763Z,1.70
2023-03-26T16:59:00.306Z,1.00
2023-03-26T17:01:48.107Z,1.40
2023-03-26T17:04:23.305Z,1.20
2023-03-26T17:06:49.631Z,1.50
2023-03-26T17:09:31.581Z,1.20
2023-03-26T17:12:05.954Z,1.40
2023-03-26T17:14:38.156Z,1.40
2023-03-26T17:17:26.588Z,1.30
2023-03-26T17:20:13.279Z,1.27
2023-03-26T17:22:47.097Z,1.83
2023-03-26T17:25:33.449Z,1.47
2023-03-26T17:28:24.586Z,1.33
2023-03-26T17:31:23.939Z,1.50
2023-03-26T17:33:50.672Z,1.20
2023-03-26T17:36:24.005Z,1.00
2023-03-26T17:38:50.397Z,0.97
2023-03-26T17:41:54.397Z,1.83
2023-03-26T17:44:44.809Z,1.38
2023-03-26T17:47:26.949Z,1.10
2023-03-26T17:50:19.549Z,0.80
2023-03-26T17:53:00.181Z,1.33
2023-03-26T17:55:36.751Z,1.33
2023-03-26T17:58:20.350Z,1.20
2023-03-26T18:00:52.074Z,1.40
2023-03-26T18:03:30.837Z,1.45
2023-03-26T18:06:08.195Z,2.27
2023-03-26T18:08:42.475Z,1.70
2023-03-26T18:11:36.921Z,1.02
2023-03-26T18:14:45.752Z,1.35
2023-03-26T18:17:12.290Z,1.33
2023-03-26T18:19:55.210Z,2.03
2023-03-26T18:22:28.466Z,1.88
2023-03-26T18:25:01.275Z,1.83
2023-03-26T18:27:36.482Z,1.60
2023-03-26T18:30:14.879Z,1.23
2023-03-26T18:32:52.243Z,1.23
2023-03-26T18:35:21.849Z,1.17
2023-03-26T18:37:51.378Z,1.85
2023-03-26T18:40:21.292Z,1.20
2023-03-26T18:42:57.546Z,0.95
2023-03-26T18:45:36.028Z,1.10
2023-03-26T18:48:06.475Z,1.67
2023-03-26T18:50:36.818Z,0.98
2023-03-26T18:53:06.267Z,0.90
2023-03-26T18:55:39.152Z,1.00
2023-03-26T18:58:23.755Z,0.73
2023-03-26T19:00:52.865Z,1.48
2023-03-26T19:03:22.160Z,0.90
2023-03-26T19:05:49.201Z,1.27
2023-03-26T19:08:17.014Z,0.93
2023-03-26T19:10:45.145Z,1.53
2023-03-26T19:13:15.338Z,1.08
2023-03-26T19:15:46.419Z,1.10
2023-03-26T19:18:18.952Z,2.63
2023-03-26T19:20:48.233Z,1.05
2023-03-26T19:23:21.614Z,1.43
2023-03-26T19:25:54.847Z,2.10
2023-03-26T19:28:33.643Z,1.65
2023-03-26T19:31:36.948Z,0.90
2023-03-26T19:34:09.402Z,1.48
2023-03-26T19:36:57.913Z,0.80
2023-03-26T19:39:37.121Z,1.00
2023-03-26T19:42:06.401Z,1.30
2023-03-26T19:44:33.555Z,1.55
2023-03-26T19:47:07.537Z,2.15
2023-03-26T19:49:48.692Z,2.27
2023-03-26T19:52:21.220Z,1.25
2023-03-26T19:55:06.698Z,2.42
2023-03-26T19:57:36.269Z,1.52
2023-03-26T20:00:05.250Z,1.90
2023-03-26T20:02:31.751Z,1.67
2023-03-26T20:04:58.193Z,1.92
2023-03-26T20:10:15.757Z,1.10
2023-03-26T20:12:42.412Z,1.65
2023-03-26T20:15:19.247Z,2.73
2023-03-26T20:17:47.000Z,1.65
2023-03-26T20:20:13.646Z,1.52
2023-03-26T20:22:40.148Z,1.30
2023-03-26T20:25:21.508Z,1.20
2023-03-26T20:27:48.089Z,0.93
2023-03-26T20:32:44.476Z,1.17
2023-03-26T20:35:17.897Z,0.75
2023-03-26T20:37:44.692Z,0.88
2023-03-26T20:40:12.347Z,2.03
2023-03-26T20:42:39.166Z,0.90
2023-03-26T20:45:18.490Z,0.77
2023-03-26T20:47:45.906Z,1.00
2023-03-26T20:50:14.106Z,1.90
2023-03-26T20:52:41.466Z,1.00
2023-03-26T20:55:15.607Z,1.13
2023-03-26T20:57:46.384Z,0.60
2023-03-26T21:00:22.901Z,0.70
2023-03-26T21:02:53.798Z,0.73
2023-03-26T21:05:25.765Z,1.00
2023-03-26T21:07:57.751Z,1.63
2023-03-26T21:10:26.006Z,1.23
2023-03-26T21:13:00.225Z,0.98
2023-03-26T21:15:31.288Z,1.15
2023-03-26T21:17:58.080Z,1.10
2023-03-26T21:20:27.862Z,0.90
2023-03-26T21:23:27.089Z,0.90
2023-03-26T21:26:12.170Z,1.08
2023-03-26T21:28:47.626Z,0.95
2023-03-26T21:31:21.072Z,1.10
2023-03-26T21:33:49.298Z,0.57
2023-03-26T21:36:18.232Z,1.20
2023-03-26T21:38:45.544Z,0.50
2023-03-26T21:41:24.296Z,1.00
2023-03-26T21:43:51.363Z,0.87
2023-03-26T21:46:18.330Z,0.70
2023-03-26T21:48:44.949Z,0.70
2023-03-26T21:51:14.641Z,0.77
2023-03-26T21:53:42.442Z,0.63
2023-03-26T21:56:19.300Z,0.70
2023-03-26T21:59:07.585Z,0.70
2023-03-26T22:01:41.361Z,0.60
2023-03-26T22:04:26.793Z,1.10
2023-03-26T22:07:14.238Z,1.42
2023-03-26T22:09:41.268Z,0.80
2023-03-26T22:12:07.745Z,0.70
2023-03-26T22:14:34.408Z,0.60
2023-03-26T22:17:00.811Z,0.82
2023-03-26T22:19:29.104Z,0.65
2023-03-26T22:21:58.189Z,0.73
2023-03-26T22:24:24.664Z,0.80
2023-03-26T22:26:51.036Z,0.90
2023-03-26T22:29:17.487Z,0.85
2023-03-26T22:31:43.963Z,0.60
2023-03-26T22:34:11.683Z,0.73
2023-03-26T22:36:40.297Z,0.70
2023-03-26T22:39:07.152Z,0.70
2023-03-26T22:41:33.555Z,0.60
2023-03-26T22:44:09.313Z,0.60
2023-03-26T22:46:40.145Z,0.73
2023-03-26T22:49:06.602Z,0.73
2023-03-26T22:51:32.917Z,0.50
2023-03-26T22:53:59.275Z,0.95
2023-03-26T22:56:25.676Z,0.95
2023-03-26T22:58:52.042Z,0.70
2023-03-26T23:01:22.738Z,1.00
2023-03-26T23:03:49.574Z,0.57
2023-03-26T23:06:17.140Z,0.95
2023-03-26T23:08:43.741Z,1.02
2023-03-26T23:11:16.142Z,0.80
2023-03-26T23:13:43.904Z,0.55
2023-03-26T23:16:11.818Z,1.75
2023-03-26T23:18:39.150Z,0.93
2023-03-26T23:21:11.737Z,0.50
2023-03-26T23:23:39.538Z,0.70
2023-03-26T23:26:06.843Z,0.57
2023-03-26T23:28:34.369Z,0.50
2023-03-26T23:31:03.295Z,0.70
2023-03-26T23:33:34.135Z,0.80
2023-03-26T23:36:04.204Z,0.73
2023-03-26T23:38:44.061Z,1.20
2023-03-26T23:41:14.958Z,1.30
2023-03-26T23:43:54.807Z,0.57
2023-03-26T23:46:30.625Z,0.70
2023-03-26T23:48:59.847Z,0.60
2023-03-26T23:51:26.608Z,0.88
2023-03-26T23:53:53.635Z,0.70
2023-03-26T23:56:20.105Z,0.75
2023-03-26T23:58:47.636Z,0.70
